Check out our new PWSWeather beta!
PWSweather.com
Personal Weather Stations
Station Observations
IMAZOWIE6
WarszawaPL

WarszawaPL

Lat: 52.27957, Lon: 21.05489

Elevation: 100

Station Type: WS1080

http://stacjapogody.waw.pl/

High Low Average
Temperature 47.8°F8.8°C 35.2°F1.8°C 41.1°F5.1°C
Dew Point 2.4°F-16.4°C -169.3°F-111.8°C -102.5°F-74.7°C
Winds 5.4 mph 8.7 kmh 0.6 mph 1.0 kmh 2.0 mph N3.2 kmh N
Wind Gusts 13.0 mph20.9 kmh 1.4 mph2.3 kmh 5.0 mph8.0 kmh
Humidity 22% 10% 14%
Pressure 29.63 in1003.4 mb 29.38 in994.9 mb -
Precipitation 0.00 in0.0 mm - -
Hour Temp Dew Point Humidity Winds Wind Gusts Pressure Precip Precip Rate Daily Precip Total
12:02 AM 35.2°F1.8°C -169.3°F-111.8°C - 0.6 mph N1.0 kmh N 2.0 mph3.2 kmh 29.63 in1003.4 mb 0.00 in0.0 mm 0.00 in0.0 mm 0.00 in0.0 mm
12:17 AM 35.2°F1.8°C -169.3°F-111.8°C - 1.4 mph N2.3 kmh N 3.4 mph5.5 kmh 29.62 in1003.0 mb 0.00 in0.0 mm 0.00 in0.0 mm 0.00 in0.0 mm
12:32 AM 35.4°F1.9°C -169.3°F-111.8°C - 2.0 mph N3.2 kmh N 4.0 mph6.4 kmh 29.62 in1003.0 mb 0.00 in0.0 mm 0.00 in0.0 mm 0.00 in0.0 mm
12:47 AM 35.4°F1.9°C -169.3°F-111.8°C - 2.8 mph N4.5 kmh N 4.8 mph7.7 kmh 29.61 in1002.7 mb 0.00 in0.0 mm 0.00 in0.0 mm 0.00 in0.0 mm
01:02 AM 35.6°F2.0°C -169.2°F-111.8°C - 2.0 mph N3.2 kmh N 4.8 mph7.7 kmh 29.61 in1002.7 mb 0.00 in0.0 mm 0.00 in0.0 mm 0.00 in0.0 mm
01:17 AM 35.8°F2.1°C -169.2°F-111.8°C - 2.0 mph N3.2 kmh N 3.4 mph5.5 kmh 29.61 in1002.7 mb 0.00 in0.0 mm 0.00 in0.0 mm 0.00 in0.0 mm
01:32 AM 35.8°F2.1°C -169.2°F-111.8°C - 1.4 mph N2.3 kmh N 4.0 mph6.4 kmh 29.60 in1002.4 mb 0.00 in0.0 mm 0.00 in0.0 mm 0.00 in0.0 mm
01:47 AM 36.1°F2.3°C -169.2°F-111.8°C - 2.0 mph N3.2 kmh N 4.8 mph7.7 kmh 29.60 in1002.4 mb 0.00 in0.0 mm 0.00 in0.0 mm 0.00 in0.0 mm
02:02 AM 36.3°F2.4°C -169.2°F-111.8°C - 3.4 mph N5.5 kmh N 4.8 mph7.7 kmh 29.59 in1002.0 mb 0.00 in0.0 mm 0.00 in0.0 mm 0.00 in0.0 mm
02:17 AM 36.3°F2.4°C -169.2°F-111.8°C - 2.0 mph N3.2 kmh N 4.8 mph7.7 kmh 29.59 in1002.0 mb 0.00 in0.0 mm 0.00 in0.0 mm 0.00 in0.0 mm
02:32 AM 36.1°F2.3°C -169.2°F-111.8°C - 1.4 mph N2.3 kmh N 2.8 mph4.5 kmh 29.58 in1001.7 mb 0.00 in0.0 mm 0.00 in0.0 mm 0.00 in0.0 mm
02:47 AM 36.3°F2.4°C -169.2°F-111.8°C - 2.8 mph N4.5 kmh N 4.8 mph7.7 kmh 29.58 in1001.7 mb 0.00 in0.0 mm 0.00 in0.0 mm 0.00 in0.0 mm
03:02 AM 36.3°F2.4°C -169.2°F-111.8°C - 1.4 mph N2.3 kmh N 3.4 mph5.5 kmh 29.58 in1001.7 mb 0.00 in0.0 mm 0.00 in0.0 mm 0.00 in0.0 mm
03:17 AM 36.5°F2.5°C -169.2°F-111.8°C - 1.4 mph N2.3 kmh N 3.4 mph5.5 kmh 29.57 in1001.4 mb 0.00 in0.0 mm 0.00 in0.0 mm 0.00 in0.0 mm
03:32 AM 36.7°F2.6°C -169.1°F-111.7°C - 2.0 mph N3.2 kmh N 4.0 mph6.4 kmh 29.57 in1001.4 mb 0.00 in0.0 mm 0.00 in0.0 mm 0.00 in0.0 mm
03:47 AM 36.5°F2.5°C -169.2°F-111.8°C - 2.0 mph N3.2 kmh N 5.4 mph8.7 kmh 29.56 in1001.0 mb 0.00 in0.0 mm 0.00 in0.0 mm 0.00 in0.0 mm
04:02 AM 35.8°F2.1°C -169.2°F-111.8°C - 2.8 mph N4.5 kmh N 4.0 mph6.4 kmh 29.55 in1000.7 mb 0.00 in0.0 mm 0.00 in0.0 mm 0.00 in0.0 mm
04:17 AM 35.6°F2.0°C -169.2°F-111.8°C - 3.4 mph N5.5 kmh N 6.2 mph10.0 kmh 29.54 in1000.3 mb 0.00 in0.0 mm 0.00 in0.0 mm 0.00 in0.0 mm
04:32 AM 35.4°F1.9°C -13.9°F-25.5°C 11% 2.0 mph N3.2 kmh N 6.2 mph10.0 kmh 29.53 in1000.0 mb 0.00 in0.0 mm 0.00 in0.0 mm 0.00 in0.0 mm
04:47 AM 35.6°F2.0°C -10.5°F-23.6°C 13% 3.4 mph N5.5 kmh N 5.4 mph8.7 kmh 29.52 in999.7 mb 0.00 in0.0 mm 0.00 in0.0 mm 0.00 in0.0 mm
05:02 AM 35.6°F2.0°C -9.0°F-22.8°C 14% 2.8 mph N4.5 kmh N 6.2 mph10.0 kmh 29.52 in999.7 mb 0.00 in0.0 mm 0.00 in0.0 mm 0.00 in0.0 mm
05:17 AM 36.0°F2.2°C -7.4°F-21.9°C 15% 2.0 mph N3.2 kmh N 6.2 mph10.0 kmh 29.51 in999.3 mb 0.00 in0.0 mm 0.00 in0.0 mm 0.00 in0.0 mm
05:32 AM 35.8°F2.1°C -6.2°F-21.2°C 16% 2.0 mph N3.2 kmh N 4.8 mph7.7 kmh 29.50 in999.0 mb 0.00 in0.0 mm 0.00 in0.0 mm 0.00 in0.0 mm
05:47 AM 36.0°F2.2°C -4.8°F-20.4°C 17% 3.4 mph N5.5 kmh N 6.8 mph10.9 kmh 29.49 in998.6 mb 0.00 in0.0 mm 0.00 in0.0 mm 0.00 in0.0 mm
06:02 AM 36.0°F2.2°C -4.8°F-20.4°C 17% 3.4 mph N5.5 kmh N 4.8 mph7.7 kmh 29.49 in998.6 mb 0.00 in0.0 mm 0.00 in0.0 mm 0.00 in0.0 mm
06:17 AM 36.0°F2.2°C -3.6°F-19.8°C 18% 2.8 mph N4.5 kmh N 4.8 mph7.7 kmh 29.49 in998.6 mb 0.00 in0.0 mm 0.00 in0.0 mm 0.00 in0.0 mm
06:32 AM 35.8°F2.1°C -2.6°F-19.2°C 19% 4.0 mph N6.4 kmh N 6.2 mph10.0 kmh 29.49 in998.6 mb 0.00 in0.0 mm 0.00 in0.0 mm 0.00 in0.0 mm
06:47 AM 36.1°F2.3°C -1.3°F-18.5°C 20% 2.0 mph N3.2 kmh N 4.0 mph6.4 kmh 29.49 in998.6 mb 0.00 in0.0 mm 0.00 in0.0 mm 0.00 in0.0 mm
07:02 AM 36.1°F2.3°C -1.3°F-18.5°C 20% 3.4 mph N5.5 kmh N 7.4 mph11.9 kmh 29.48 in998.3 mb 0.00 in0.0 mm 0.00 in0.0 mm 0.00 in0.0 mm
07:17 AM 36.3°F2.4°C -0.1°F-17.8°C 21% 3.4 mph N5.5 kmh N 6.2 mph10.0 kmh 29.47 in998.0 mb 0.01 in0.3 mm 0.05 in1.3 mm 0.01 in0.3 mm
07:32 AM 36.7°F2.6°C 1.2°F-17.1°C 22% 3.4 mph N5.5 kmh N 5.4 mph8.7 kmh 29.47 in998.0 mb 0.01 in0.3 mm 0.00 in0.0 mm 0.01 in0.3 mm
07:47 AM 37.0°F2.8°C 1.5°F-16.9°C 22% 2.8 mph N4.5 kmh N 4.8 mph7.7 kmh 29.46 in997.6 mb 0.01 in0.3 mm 0.00 in0.0 mm 0.01 in0.3 mm
08:02 AM 37.4°F3.0°C 1.8°F-16.8°C 22% 1.4 mph N2.3 kmh N 4.0 mph6.4 kmh 29.46 in997.6 mb 0.01 in0.3 mm 0.00 in0.0 mm 0.01 in0.3 mm
08:17 AM 38.1°F3.4°C 2.4°F-16.4°C 22% 3.4 mph N5.5 kmh N 5.4 mph8.7 kmh 29.46 in997.6 mb 0.00 in0.0 mm 0.00 in0.0 mm 0.01 in0.3 mm
08:32 AM 38.5°F3.6°C 1.7°F-16.8°C 21% 1.4 mph N2.3 kmh N 4.0 mph6.4 kmh 29.45 in997.3 mb 0.00 in0.0 mm 0.00 in0.0 mm 0.01 in0.3 mm
08:47 AM 38.8°F3.8°C 1.0°F-17.2°C 20% 2.8 mph N4.5 kmh N 4.8 mph7.7 kmh 29.45 in997.3 mb 0.00 in0.0 mm 0.00 in0.0 mm 0.01 in0.3 mm
09:02 AM 39.9°F4.4°C -0.4°F-18.0°C 18% 3.4 mph N5.5 kmh N 5.4 mph8.7 kmh 29.45 in997.3 mb 0.00 in0.0 mm 0.00 in0.0 mm 0.01 in0.3 mm
09:17 AM 41.0°F5.0°C -1.9°F-18.8°C 16% 4.0 mph N6.4 kmh N 6.2 mph10.0 kmh 29.44 in997.0 mb 0.00 in0.0 mm 0.00 in0.0 mm 0.01 in0.3 mm
09:32 AM 41.5°F5.3°C -5.8°F-21.0°C 13% 1.4 mph N2.3 kmh N 2.8 mph4.5 kmh 29.44 in997.0 mb 0.00 in0.0 mm 0.00 in0.0 mm 0.01 in0.3 mm
09:47 AM 42.3°F5.7°C -10.5°F-23.6°C 10% 2.0 mph N3.2 kmh N 4.0 mph6.4 kmh 29.44 in997.0 mb 0.00 in0.0 mm 0.00 in0.0 mm 0.01 in0.3 mm
10:02 AM 43.2°F6.2°C -168.5°F-111.4°C - 4.0 mph N6.4 kmh N 6.8 mph10.9 kmh 29.43 in996.6 mb 0.00 in0.0 mm 0.00 in0.0 mm 0.01 in0.3 mm
10:17 AM 43.9°F6.6°C -168.4°F-111.3°C - 2.8 mph N4.5 kmh N 6.2 mph10.0 kmh 29.43 in996.6 mb 0.00 in0.0 mm 0.00 in0.0 mm 0.01 in0.3 mm
10:32 AM 45.1°F7.3°C -168.3°F-111.3°C - 2.0 mph N3.2 kmh N 4.8 mph7.7 kmh 29.43 in996.6 mb 0.00 in0.0 mm 0.00 in0.0 mm 0.01 in0.3 mm
10:47 AM 46.6°F8.1°C -168.1°F-111.2°C - 3.4 mph N5.5 kmh N 7.4 mph11.9 kmh 29.42 in996.3 mb 0.00 in0.0 mm 0.00 in0.0 mm 0.01 in0.3 mm
11:02 AM 47.5°F8.6°C -168.1°F-111.2°C - 4.0 mph N6.4 kmh N 6.8 mph10.9 kmh 29.42 in996.3 mb 0.00 in0.0 mm 0.00 in0.0 mm 0.01 in0.3 mm
11:17 AM 47.8°F8.8°C -168.0°F-111.1°C - 4.0 mph N6.4 kmh N 8.2 mph13.2 kmh 29.42 in996.3 mb 0.00 in0.0 mm 0.00 in0.0 mm 0.01 in0.3 mm
11:32 AM 47.3°F8.5°C -168.1°F-111.2°C - 2.8 mph N4.5 kmh N 5.4 mph8.7 kmh 29.42 in996.3 mb 0.00 in0.0 mm 0.00 in0.0 mm 0.01 in0.3 mm
11:47 AM 47.3°F8.5°C -168.1°F-111.2°C - 4.8 mph N7.7 kmh N 8.2 mph13.2 kmh 29.41 in995.9 mb 0.00 in0.0 mm 0.00 in0.0 mm 0.01 in0.3 mm
12:02 PM 47.3°F8.5°C -168.1°F-111.2°C - 3.4 mph N5.5 kmh N 6.2 mph10.0 kmh 29.41 in995.9 mb 0.00 in0.0 mm 0.00 in0.0 mm 0.01 in0.3 mm
12:17 PM 47.5°F8.6°C -168.1°F-111.2°C - 4.8 mph N7.7 kmh N 7.4 mph11.9 kmh 29.41 in995.9 mb 0.00 in0.0 mm 0.00 in0.0 mm 0.01 in0.3 mm
12:32 PM 47.1°F8.4°C -168.1°F-111.2°C - 5.4 mph N8.7 kmh N 13.0 mph20.9 kmh 29.40 in995.6 mb 0.00 in0.0 mm 0.00 in0.0 mm 0.01 in0.3 mm
12:47 PM 46.4°F8.0°C -168.2°F-111.2°C - 4.0 mph N6.4 kmh N 6.8 mph10.9 kmh 29.41 in995.9 mb 0.00 in0.0 mm 0.00 in0.0 mm 0.01 in0.3 mm
01:02 PM 45.7°F7.6°C -168.2°F-111.2°C - 3.4 mph N5.5 kmh N 6.8 mph10.9 kmh 29.42 in996.3 mb 0.00 in0.0 mm 0.00 in0.0 mm 0.01 in0.3 mm
01:17 PM 44.8°F7.1°C -168.3°F-111.3°C - 2.0 mph N3.2 kmh N 4.8 mph7.7 kmh 29.42 in996.3 mb 0.00 in0.0 mm 0.00 in0.0 mm 0.01 in0.3 mm
01:32 PM 44.8°F7.1°C -168.3°F-111.3°C - 5.4 mph N8.7 kmh N 8.8 mph14.2 kmh 29.41 in995.9 mb 0.00 in0.0 mm 0.00 in0.0 mm 0.01 in0.3 mm
01:47 PM 44.1°F6.7°C -168.4°F-111.3°C - 4.8 mph N7.7 kmh N 7.4 mph11.9 kmh 29.42 in996.3 mb 0.00 in0.0 mm 0.00 in0.0 mm 0.01 in0.3 mm
02:02 PM 43.7°F6.5°C -168.4°F-111.3°C - 5.4 mph N8.7 kmh N 9.6 mph15.4 kmh 29.41 in995.9 mb 0.00 in0.0 mm 0.00 in0.0 mm 0.01 in0.3 mm
02:17 PM 43.2°F6.2°C -168.5°F-111.4°C - 4.8 mph N7.7 kmh N 8.2 mph13.2 kmh 29.41 in995.9 mb 0.00 in0.0 mm 0.00 in0.0 mm 0.01 in0.3 mm
02:32 PM 42.6°F5.9°C -168.5°F-111.4°C - 4.0 mph N6.4 kmh N 7.4 mph11.9 kmh 29.41 in995.9 mb 0.00 in0.0 mm 0.00 in0.0 mm 0.01 in0.3 mm
02:47 PM 42.6°F5.9°C -168.5°F-111.4°C - 2.8 mph N4.5 kmh N 5.4 mph8.7 kmh 29.42 in996.3 mb 0.00 in0.0 mm 0.00 in0.0 mm 0.01 in0.3 mm
03:02 PM 42.8°F6.0°C -168.5°F-111.4°C - 2.0 mph N3.2 kmh N 4.0 mph6.4 kmh 29.40 in995.6 mb 0.01 in0.3 mm 0.02 in0.5 mm 0.02 in0.5 mm
03:17 PM 43.2°F6.2°C -9.8°F-23.2°C 10% 2.8 mph N4.5 kmh N 4.8 mph7.7 kmh 29.40 in995.6 mb 0.00 in0.0 mm 0.00 in0.0 mm 0.02 in0.5 mm
03:32 PM 43.2°F6.2°C -9.8°F-23.2°C 10% 2.0 mph N3.2 kmh N 4.8 mph7.7 kmh 29.40 in995.6 mb 0.00 in0.0 mm 0.00 in0.0 mm 0.02 in0.5 mm
03:47 PM 43.7°F6.5°C -9.4°F-23.0°C 10% 2.8 mph N4.5 kmh N 4.0 mph6.4 kmh 29.40 in995.6 mb 0.00 in0.0 mm 0.00 in0.0 mm 0.02 in0.5 mm
04:02 PM 43.7°F6.5°C -9.4°F-23.0°C 10% 2.8 mph N4.5 kmh N 4.0 mph6.4 kmh 29.39 in995.3 mb 0.00 in0.0 mm 0.00 in0.0 mm 0.02 in0.5 mm
04:17 PM 43.5°F6.4°C -168.4°F-111.3°C - 2.8 mph N4.5 kmh N 5.4 mph8.7 kmh 29.39 in995.3 mb 0.00 in0.0 mm 0.00 in0.0 mm 0.02 in0.5 mm
04:32 PM 43.5°F6.4°C -168.4°F-111.3°C - 3.4 mph N5.5 kmh N 5.4 mph8.7 kmh 29.39 in995.3 mb 0.00 in0.0 mm 0.00 in0.0 mm 0.02 in0.5 mm
04:47 PM 43.3°F6.3°C -168.5°F-111.4°C - 4.0 mph N6.4 kmh N 6.2 mph10.0 kmh 29.39 in995.3 mb 0.00 in0.0 mm 0.00 in0.0 mm 0.02 in0.5 mm
05:02 PM 43.5°F6.4°C -9.5°F-23.1°C 10% 2.8 mph N4.5 kmh N 5.4 mph8.7 kmh 29.39 in995.3 mb 0.00 in0.0 mm 0.00 in0.0 mm 0.02 in0.5 mm
05:17 PM 43.3°F6.3°C -9.6°F-23.1°C 10% 2.8 mph N4.5 kmh N 4.0 mph6.4 kmh 29.38 in994.9 mb 0.01 in0.3 mm 0.05 in1.3 mm 0.04 in1.0 mm
05:32 PM 43.2°F6.2°C -9.8°F-23.2°C 10% 2.0 mph N3.2 kmh N 4.8 mph7.7 kmh 29.39 in995.3 mb 0.01 in0.3 mm 0.00 in0.0 mm 0.04 in1.0 mm
05:47 PM 43.2°F6.2°C -9.8°F-23.2°C 10% 2.0 mph N3.2 kmh N 4.0 mph6.4 kmh 29.39 in995.3 mb 0.01 in0.3 mm 0.00 in0.0 mm 0.04 in1.0 mm
06:02 PM 43.2°F6.2°C -7.9°F-22.2°C 11% 1.4 mph N2.3 kmh N 2.8 mph4.5 kmh 29.40 in995.6 mb 0.01 in0.3 mm 0.00 in0.0 mm 0.04 in1.0 mm
06:17 PM 43.2°F6.2°C -7.9°F-22.2°C 11% 2.0 mph N3.2 kmh N 3.4 mph5.5 kmh 29.40 in995.6 mb 0.00 in0.0 mm 0.00 in0.0 mm 0.04 in1.0 mm
06:32 PM 43.2°F6.2°C -7.9°F-22.2°C 11% 1.4 mph N2.3 kmh N 2.8 mph4.5 kmh 29.41 in995.9 mb 0.00 in0.0 mm 0.00 in0.0 mm 0.04 in1.0 mm
06:47 PM 43.3°F6.3°C -7.7°F-22.1°C 11% 1.4 mph N2.3 kmh N 2.0 mph3.2 kmh 29.40 in995.6 mb 0.00 in0.0 mm 0.00 in0.0 mm 0.04 in1.0 mm
07:02 PM 43.3°F6.3°C -7.7°F-22.1°C 11% 0.6 mph N1.0 kmh N 2.0 mph3.2 kmh 29.40 in995.6 mb 0.00 in0.0 mm 0.00 in0.0 mm 0.04 in1.0 mm
07:17 PM 43.5°F6.4°C -7.6°F-22.0°C 11% 1.4 mph N2.3 kmh N 2.8 mph4.5 kmh 29.41 in995.9 mb 0.00 in0.0 mm 0.00 in0.0 mm 0.04 in1.0 mm
07:32 PM 43.3°F6.3°C -7.7°F-22.1°C 11% 0.6 mph N1.0 kmh N 1.4 mph2.3 kmh 29.42 in996.3 mb 0.00 in0.0 mm 0.00 in0.0 mm 0.04 in1.0 mm
07:47 PM 43.5°F6.4°C -9.5°F-23.1°C 10% 0.6 mph N1.0 kmh N 1.4 mph2.3 kmh 29.42 in996.3 mb 0.00 in0.0 mm 0.00 in0.0 mm 0.04 in1.0 mm
08:02 PM 43.5°F6.4°C -9.5°F-23.1°C 10% 0.6 mph N1.0 kmh N 2.0 mph3.2 kmh 29.42 in996.3 mb 0.00 in0.0 mm 0.00 in0.0 mm 0.04 in1.0 mm
08:17 PM 43.9°F6.6°C -168.4°F-111.3°C - 1.4 mph N2.3 kmh N 2.8 mph4.5 kmh 29.41 in995.9 mb 0.00 in0.0 mm 0.00 in0.0 mm 0.04 in1.0 mm
08:32 PM 43.9°F6.6°C -168.4°F-111.3°C - 1.4 mph N2.3 kmh N 3.4 mph5.5 kmh 29.41 in995.9 mb 0.00 in0.0 mm 0.00 in0.0 mm 0.04 in1.0 mm
08:47 PM 43.9°F6.6°C -168.4°F-111.3°C - 1.4 mph N2.3 kmh N 2.8 mph4.5 kmh 29.42 in996.3 mb 0.00 in0.0 mm 0.00 in0.0 mm 0.04 in1.0 mm
09:02 PM 43.9°F6.6°C -168.4°F-111.3°C - 0.6 mph N1.0 kmh N 2.0 mph3.2 kmh 29.42 in996.3 mb 0.00 in0.0 mm 0.00 in0.0 mm 0.04 in1.0 mm
09:17 PM 43.9°F6.6°C -168.4°F-111.3°C - 0.6 mph N1.0 kmh N 2.0 mph3.2 kmh 29.42 in996.3 mb 0.00 in0.0 mm 0.00 in0.0 mm 0.04 in1.0 mm
09:32 PM 43.9°F6.6°C -168.4°F-111.3°C - 1.4 mph N2.3 kmh N 2.8 mph4.5 kmh 29.42 in996.3 mb 0.00 in0.0 mm 0.00 in0.0 mm 0.04 in1.0 mm
09:47 PM 44.1°F6.7°C -168.4°F-111.3°C - 2.0 mph N3.2 kmh N 3.4 mph5.5 kmh 29.42 in996.3 mb 0.00 in0.0 mm 0.00 in0.0 mm 0.04 in1.0 mm
10:02 PM 44.2°F6.8°C -168.4°F-111.3°C - 1.4 mph N2.3 kmh N 2.8 mph4.5 kmh 29.42 in996.3 mb 0.00 in0.0 mm 0.00 in0.0 mm 0.04 in1.0 mm
10:17 PM 44.1°F6.7°C -168.4°F-111.3°C - 1.4 mph N2.3 kmh N 2.8 mph4.5 kmh 29.42 in996.3 mb 0.00 in0.0 mm 0.00 in0.0 mm 0.04 in1.0 mm
10:32 PM 43.9°F6.6°C -168.4°F-111.3°C - 1.4 mph N2.3 kmh N 4.0 mph6.4 kmh 29.42 in996.3 mb 0.00 in0.0 mm 0.00 in0.0 mm 0.04 in1.0 mm
10:47 PM 44.1°F6.7°C -168.4°F-111.3°C - 2.0 mph N3.2 kmh N 4.0 mph6.4 kmh 29.42 in996.3 mb 0.00 in0.0 mm 0.00 in0.0 mm 0.04 in1.0 mm
11:02 PM 44.1°F6.7°C -168.4°F-111.3°C - 2.8 mph N4.5 kmh N 5.4 mph8.7 kmh 29.42 in996.3 mb 0.00 in0.0 mm 0.00 in0.0 mm 0.04 in1.0 mm
11:17 PM 44.2°F6.8°C -168.4°F-111.3°C - 2.0 mph N3.2 kmh N 5.4 mph8.7 kmh 29.43 in996.6 mb 0.00 in0.0 mm 0.00 in0.0 mm 0.04 in1.0 mm
11:32 PM 44.6°F7.0°C -168.3°F-111.3°C - 1.4 mph N2.3 kmh N 3.4 mph5.5 kmh 29.43 in996.6 mb 0.00 in0.0 mm 0.00 in0.0 mm 0.04 in1.0 mm
11:47 PM 44.8°F7.1°C -168.3°F-111.3°C - 1.4 mph N2.3 kmh N 2.8 mph4.5 kmh 29.43 in996.6 mb 0.00 in0.0 mm 0.00 in0.0 mm 0.04 in1.0 mm